Time;durP1;ratioP1;P1;durP2;ratioP2;P2;SDS_P1;SDS_P2;PMS_P1;PMS_P2;Temp;Humidity;BMP_temperature;BMP_pressure;BME280_temperature;BME280_humidity;BME280_pressure;Samples;Min_cycle;Max_cycle;Signal;HPM_P1;HPM_P2
2022/04/22 00:00:00;;;;;;;8.98;5.47;;;;;;;12.34;57.72;100952.19;5065045;28;20031;-47
2022/04/22 00:02:26;;;;;;;7.25;5.80;;;;;;;12.23;58.19;100954.53;5057006;28;20033;-47
2022/04/22 00:04:51;;;;;;;10.48;5.85;;;;;;;12.18;58.38;100943.25;5064659;28;20434;-46
2022/04/22 00:07:17;;;;;;;9.23;5.85;;;;;;;12.13;58.80;100938.81;5061143;28;20037;-49
2022/04/22 00:09:42;;;;;;;8.30;5.50;;;;;;;12.12;58.96;100952.53;5059768;28;20400;-46
2022/04/22 00:12:08;;;;;;;10.55;6.20;;;;;;;12.19;58.59;100934.66;5060355;28;20473;-48
2022/04/22 00:14:34;;;;;;;9.68;6.05;;;;;;;12.25;58.71;100945.13;5058997;28;20521;-47
2022/04/22 00:16:59;;;;;;;10.32;6.10;;;;;;;12.20;59.02;100938.16;5059902;28;20103;-47
2022/04/22 00:19:24;;;;;;;8.90;5.95;;;;;;;12.17;59.16;100935.47;5060341;28;20033;-49
2022/04/22 00:21:50;;;;;;;11.52;6.43;;;;;;;12.16;59.28;100937.19;5059276;28;20401;-46
2022/04/22 00:24:16;;;;;;;9.30;6.43;;;;;;;12.11;59.39;100935.34;5053438;28;20067;-47
2022/04/22 00:26:42;;;;;;;12.57;5.68;;;;;;;12.00;59.82;100935.09;5058055;28;20086;-48
2022/04/22 00:29:07;;;;;;;9.32;6.40;;;;;;;11.98;60.11;100934.19;5059498;28;20032;-48
2022/04/22 00:31:33;;;;;;;9.23;6.40;;;;;;;11.92;60.37;100928.91;5059182;28;20028;-45
2022/04/22 00:33:59;;;;;;;10.15;6.28;;;;;;;11.79;61.05;100933.72;5063098;28;20028;-46
2022/04/22 00:36:24;;;;;;;9.48;6.63;;;;;;;11.76;61.01;100930.19;5056171;28;20029;-50
2022/04/22 00:38:50;;;;;;;10.40;6.50;;;;;;;11.74;61.33;100932.72;5059483;28;20025;-48
2022/04/22 00:41:15;;;;;;;9.73;6.07;;;;;;;11.76;61.44;100927.59;5057746;28;20028;-47
2022/04/22 00:43:49;;;;;;;11.70;6.70;;;;;;;11.79;61.31;100928.56;5059635;28;20034;-46
2022/04/22 00:46:16;;;;;;;10.85;6.30;;;;;;;11.76;61.74;100925.03;5057944;28;20369;-46
2022/04/22 00:48:41;;;;;;;10.18;6.88;;;;;;;11.70;61.69;100920.59;5054385;28;20028;-46
2022/04/22 00:51:08;;;;;;;11.55;7.28;;;;;;;11.66;62.04;100918.81;5056934;28;20062;-46
2022/04/22 00:53:35;;;;;;;8.68;6.55;;;;;;;11.67;62.17;100917.97;5057627;28;20488;-49
2022/04/22 00:56:05;;;;;;;8.60;6.65;;;;;;;11.69;62.00;100912.84;5059234;28;20024;-50
2022/04/22 00:58:31;;;;;;;10.93;6.97;;;;;;;11.61;62.87;100920.41;5061273;28;20052;-47
2022/04/22 01:00:56;;;;;;;8.63;7.05;;;;;;;11.58;62.87;100917.72;5062975;28;20745;-48
2022/04/22 01:03:22;;;;;;;10.35;7.20;;;;;;;11.54;62.84;100915.94;5059362;28;20070;-49
2022/04/22 01:11:39;;;;;;;11.68;7.57;;;;;;;11.59;63.04;100908.28;5057137;28;20094;-48
2022/04/22 01:14:06;;;;;;;13.45;7.32;;;;;;;11.51;63.36;100903.84;5070506;28;20098;-49
2022/04/22 01:16:32;;;;;;;18.65;8.02;;;;;;;11.51;63.68;100908.13;5059710;28;20074;-46
2022/04/22 01:18:58;;;;;;;15.27;7.50;;;;;;;11.50;63.48;100902.09;5055381;28;20028;-46
2022/04/22 01:21:23;;;;;;;11.85;7.68;;;;;;;11.43;63.96;100900.22;5059574;28;20111;-48
2022/04/22 01:23:49;;;;;;;13.48;8.65;;;;;;;11.43;64.06;100892.47;5056381;28;20028;-45
2022/04/22 01:26:14;;;;;;;10.60;7.72;;;;;;;11.46;63.93;100895.13;5055615;28;20468;-48
2022/04/22 01:28:40;;;;;;;17.60;8.35;;;;;;;11.46;64.11;100892.53;5057725;28;20781;-50
2022/04/22 01:31:06;;;;;;;10.45;7.80;;;;;;;11.47;64.27;100891.72;5058007;28;20073;-49
2022/04/22 01:33:32;;;;;;;13.05;7.93;;;;;;;11.43;64.71;100891.59;5060912;28;20032;-48
2022/04/22 01:35:57;;;;;;;11.75;8.05;;;;;;;11.37;65.04;100894.03;5056666;28;20051;-48
2022/04/22 01:38:23;;;;;;;14.98;8.40;;;;;;;11.35;65.16;100891.44;5057990;28;20074;-48
2022/04/22 01:40:48;;;;;;;12.02;7.57;;;;;;;11.31;65.38;100888.72;5054782;28;20040;-49
2022/04/22 01:43:14;;;;;;;11.43;8.43;;;;;;;11.21;65.51;100888.47;5060747;28;20119;-49
2022/04/22 01:45:40;;;;;;;11.15;8.48;;;;;;;11.13;66.12;100879.69;5056482;28;20395;-46
2022/04/22 01:48:05;;;;;;;12.30;8.77;;;;;;;11.06;66.62;100876.94;5056997;28;20071;-48
2022/04/22 01:50:31;;;;;;;11.73;8.43;;;;;;;11.08;66.36;100880.41;5054681;28;20032;-45
2022/04/22 01:52:56;;;;;;;17.65;8.68;;;;;;;11.04;66.56;100881.16;5056195;28;20044;-49
2022/04/22 01:55:22;;;;;;;11.35;8.23;;;;;;;11.03;66.75;100877.72;5055367;28;20113;-47
2022/04/22 01:57:48;;;;;;;11.15;7.95;;;;;;;11.00;66.74;100886.22;5060090;28;20044;-46
2022/04/22 02:00:13;;;;;;;12.80;8.85;;;;;;;10.99;67.18;100888.78;5059203;28;20032;-49
2022/04/22 02:02:38;;;;;;;10.88;8.20;;;;;;;11.00;67.10;100881.09;5059639;28;20043;-46
2022/04/22 02:05:05;;;;;;;13.85;8.70;;;;;;;11.01;67.17;100889.66;5056146;28;20052;-50
2022/04/22 02:07:31;;;;;;;13.90;8.93;;;;;;;11.00;67.28;100888.81;5060029;28;20033;-53
2022/04/22 02:09:56;;;;;;;12.43;8.98;;;;;;;10.95;67.51;100880.09;5058927;28;20027;-47
2022/04/22 02:12:22;;;;;;;10.82;8.80;;;;;;;11.00;67.20;100872.50;5055324;28;20090;-45
2022/04/22 02:14:47;;;;;;;11.82;8.50;;;;;;;10.91;67.69;100883.41;5058142;28;20045;-50
2022/04/22 02:17:13;;;;;;;11.57;9.10;;;;;;;10.87;68.08;100883.28;5058953;28;20041;-49
2022/04/22 02:19:40;;;;;;;11.93;8.20;;;;;;;10.91;67.83;100883.41;5055421;28;20491;-47
2022/04/22 02:22:05;;;;;;;9.85;8.00;;;;;;;10.93;67.65;100883.47;5057760;28;20115;-50
2022/04/22 02:24:31;;;;;;;11.57;9.02;;;;;;;10.90;67.87;100891.94;5057654;28;20405;-47
2022/04/22 02:29:40;;;;;;;12.20;8.65;;;;;;;10.85;68.35;100883.22;5066159;28;20051;-47
2022/04/22 02:32:06;;;;;;;12.93;8.80;;;;;;;10.80;68.65;100887.41;5062473;28;20055;-45
2022/04/22 02:34:31;;;;;;;11.20;8.93;;;;;;;10.82;68.52;100883.16;5058509;28;20123;-45
2022/04/22 02:36:57;;;;;;;11.05;8.73;;;;;;;10.78;68.81;100881.31;5065707;28;20039;-47
2022/04/22 02:39:22;;;;;;;13.27;8.82;;;;;;;10.84;68.51;100872.91;5064045;28;20036;-46
2022/04/22 02:47:15;;;;;;;14.38;9.32;;;;;;;10.91;68.18;100872.22;5061479;28;20052;-47
2022/04/22 02:49:44;;;;;;;12.75;9.48;;;;;;;10.88;68.30;100867.91;5061769;28;20040;-48
2022/04/22 02:52:10;;;;;;;12.63;9.43;;;;;;;10.78;68.98;100860.75;5062523;28;20020;-46
2022/04/22 02:54:36;;;;;;;14.10;9.20;;;;;;;10.76;68.79;100859.84;5061261;28;20114;-46
2022/04/22 02:57:02;;;;;;;13.38;9.63;;;;;;;10.78;68.98;100863.31;5059572;28;20123;-46
2022/04/22 02:59:29;;;;;;;15.60;9.90;;;;;;;10.71;69.38;100856.28;5062363;28;20271;-46
2022/04/22 03:01:55;;;;;;;13.80;10.23;;;;;;;10.66;69.62;100858.72;5061934;28;20028;-46
2022/04/22 03:04:21;;;;;;;16.50;10.80;;;;;;;10.62;69.94;100856.03;5064551;28;20045;-48
2022/04/22 03:06:46;;;;;;;13.48;9.77;;;;;;;10.59;70.11;100850.78;5061889;28;20206;-47
2022/04/22 03:09:12;;;;;;;15.27;10.25;;;;;;;10.60;69.85;100845.69;5059447;28;20032;-49
2022/04/22 03:11:37;;;;;;;12.50;10.20;;;;;;;10.60;70.10;100845.69;5059352;28;20104;-44
2022/04/22 03:14:05;;;;;;;14.90;10.38;;;;;;;10.61;70.07;100849.13;5062109;28;20029;-47
2022/04/22 03:16:32;;;;;;;16.00;10.27;;;;;;;10.60;69.84;100852.53;5062924;28;20112;-50
2022/04/22 03:18:58;;;;;;;16.75;11.38;;;;;;;10.57;70.01;100848.19;5058320;28;20040;-49
2022/04/22 03:21:24;;;;;;;16.00;10.50;;;;;;;10.54;70.31;100853.22;5060879;28;20123;-49
2022/04/22 03:23:50;;;;;;;17.60;11.00;;;;;;;10.52;70.50;100849.75;5060455;28;20115;-50
2022/04/22 03:26:15;;;;;;;13.90;10.80;;;;;;;10.54;70.54;100860.06;5060071;28;20044;-50
2022/04/22 03:28:41;;;;;;;15.90;11.05;;;;;;;10.50;70.56;100856.56;5062659;28;20032;-49
2022/04/22 03:31:07;;;;;;;15.55;10.50;;;;;;;10.48;70.71;100853.94;5059618;28;20028;-46
2022/04/22 03:33:32;;;;;;;15.32;11.50;;;;;;;10.46;70.85;100850.44;5062855;28;20373;-50
2022/04/22 03:35:58;;;;;;;13.93;10.75;;;;;;;10.45;70.79;100850.41;5060917;28;20059;-46
2022/04/22 03:38:23;;;;;;;15.65;10.70;;;;;;;10.41;71.26;100846.88;5061239;28;20056;-45
2022/04/22 03:40:51;;;;;;;16.02;10.90;;;;;;;10.38;71.24;100848.50;5056211;28;20077;-49
2022/04/22 03:43:16;;;;;;;14.65;11.00;;;;;;;10.36;71.09;100840.72;5059272;28;20031;-47
2022/04/22 03:45:42;;;;;;;16.88;11.07;;;;;;;10.39;71.02;100839.97;5060096;28;20043;-45
2022/04/22 03:48:09;;;;;;;20.10;11.27;;;;;;;10.38;71.36;100835.66;5058506;28;20104;-46
2022/04/22 03:50:36;;;;;;;17.45;11.13;;;;;;;10.40;71.13;100839.13;5058761;28;20529;-45
2022/04/22 03:53:03;;;;;;;14.70;10.85;;;;;;;10.41;71.11;100834.03;5058334;28;20032;-50
2022/04/22 03:55:28;;;;;;;17.17;11.15;;;;;;;10.41;70.78;100830.59;5057484;28;20473;-46
2022/04/22 03:58:12;;;;;;;13.85;10.40;;;;;;;10.39;71.27;100827.09;5063059;28;20101;-48
2022/04/22 04:00:43;;;;;;;15.40;10.77;;;;;;;10.41;71.42;100826.31;5056641;28;20024;-46
2022/04/22 04:03:13;;;;;;;14.18;10.75;;;;;;;10.38;71.15;100828.81;5060597;28;20035;-45
2022/04/22 04:05:39;;;;;;;15.70;11.10;;;;;;;10.35;71.55;100825.28;5058927;28;20032;-46
2022/04/22 04:08:06;;;;;;;15.15;11.05;;;;;;;10.31;71.74;100828.56;5060356;28;20115;-45
2022/04/22 04:16:00;;;;;;;16.83;11.80;;;;;;;10.29;71.88;100825.09;5062263;28;20052;-46
2022/04/22 04:18:40;;;;;;;16.90;11.30;;;;;;;10.28;72.08;100829.38;5059795;28;20036;-46
2022/04/22 04:23:51;;;;;;;18.77;10.70;;;;;;;10.31;71.92;100828.56;5057039;28;19922;-51
2022/04/22 04:26:18;;;;;;;16.00;10.63;;;;;;;10.20;72.54;100834.25;5056909;28;20480;-47
2022/04/22 04:28:47;;;;;;;15.00;11.00;;;;;;;10.17;72.78;100835.84;5054940;28;20492;-49
2022/04/22 04:31:13;;;;;;;16.73;11.43;;;;;;;10.14;73.06;100828.94;5055767;28;20400;-44
2022/04/22 04:33:39;;;;;;;15.38;11.40;;;;;;;10.13;73.31;100834.00;5059751;28;20397;-45
2022/04/22 04:36:06;;;;;;;18.92;11.50;;;;;;;10.10;73.39;100824.53;5054396;28;20501;-45
2022/04/22 04:38:32;;;;;;;17.52;11.13;;;;;;;10.13;73.58;100831.44;5059632;28;20037;-47
2022/04/22 04:40:58;;;;;;;17.08;11.77;;;;;;;10.13;73.91;100823.72;5059555;28;20440;-48
2022/04/22 04:43:24;;;;;;;16.33;11.25;;;;;;;10.14;73.81;100823.81;5059368;28;20111;-46
2022/04/22 04:45:50;;;;;;;15.90;10.98;;;;;;;10.10;74.58;100824.53;5054502;28;20127;-45
2022/04/22 04:48:16;;;;;;;15.43;11.32;;;;;;;10.15;74.23;100835.81;5058924;28;21092;-50
2022/04/22 04:50:46;;;;;;;18.38;11.57;;;;;;;10.09;74.65;100822.78;5056469;28;20039;-45
2022/04/22 04:53:12;;;;;;;16.73;10.63;;;;;;;10.11;75.04;100830.53;5058644;28;20397;-45
2022/04/22 04:55:38;;;;;;;19.95;11.23;;;;;;;10.13;75.09;100834.91;5056208;28;20075;-49
2022/04/22 04:58:04;;;;;;;17.95;10.82;;;;;;;10.17;74.87;100830.72;5057292;28;20077;-46
2022/04/22 05:00:30;;;;;;;16.52;11.57;;;;;;;10.13;75.41;100824.63;5057984;28;20036;-49
2022/04/22 05:02:55;;;;;;;19.33;11.77;;;;;;;10.12;75.85;100828.00;5055798;28;20453;-45
2022/04/22 05:05:21;;;;;;;18.77;12.20;;;;;;;10.13;75.88;100837.50;5061873;28;20078;-48
2022/04/22 05:07:56;;;;;;;16.38;11.63;;;;;;;10.19;76.07;100824.81;5057801;28;20105;-50
2022/04/22 05:10:22;;;;;;;17.02;12.60;;;;;;;10.14;76.52;100834.09;5056280;28;20102;-49
2022/04/22 05:12:49;;;;;;;17.63;12.88;;;;;;;10.05;77.07;100830.34;5059816;28;20029;-45
2022/04/22 05:15:17;;;;;;;18.63;13.43;;;;;;;10.02;77.68;100831.16;5067755;28;20552;-46
2022/04/22 05:17:43;;;;;;;18.75;12.80;;;;;;;10.06;77.63;100834.66;5060431;28;20082;-48
2022/04/22 05:20:13;;;;;;;17.38;12.80;;;;;;;10.09;77.84;100833.06;5056127;28;20028;-49
2022/04/22 05:22:40;;;;;;;18.85;13.38;;;;;;;10.16;77.67;100840.13;5053908;28;20032;-48
2022/04/22 05:25:07;;;;;;;18.35;13.18;;;;;;;10.18;77.94;100835.03;5059130;28;20028;-45
2022/04/22 05:27:33;;;;;;;17.73;13.48;;;;;;;10.20;78.14;100830.81;5060986;28;20032;-46
2022/04/22 05:32:47;;;;;;;19.42;14.32;;;;;;;10.31;77.92;100826.00;5060134;28;20124;-49
2022/04/22 05:35:15;;;;;;;21.35;14.43;;;;;;;10.34;78.21;100832.13;5062633;28;20736;-48
2022/04/22 05:37:45;;;;;;;20.35;14.30;;;;;;;10.37;78.04;100823.59;5056896;28;20123;-53
2022/04/22 05:40:13;;;;;;;21.45;15.27;;;;;;;10.34;78.27;100829.53;5056292;28;20139;-49
2022/04/22 05:42:38;;;;;;;21.90;15.55;;;;;;;10.34;78.47;100823.53;5057146;28;20052;-49
2022/04/22 05:45:06;;;;;;;22.17;15.40;;;;;;;10.40;78.51;100827.16;5055592;28;20025;-47
2022/04/22 05:47:32;;;;;;;22.50;16.27;;;;;;;10.50;78.60;100837.69;5058264;28;20449;-52
2022/04/22 05:49:57;;;;;;;22.75;16.13;;;;;;;10.44;78.93;100828.97;5055474;28;20036;-50
2022/04/22 05:52:23;;;;;;;22.40;15.73;;;;;;;10.49;78.73;100836.78;5066929;28;20032;-46
2022/04/22 05:54:48;;;;;;;22.55;16.33;;;;;;;10.48;78.99;100838.50;5039112;28;20040;-48
2022/04/22 05:57:13;;;;;;;21.60;15.68;;;;;;;10.60;78.82;100837.97;5058101;28;20073;-48
2022/04/22 05:59:39;;;;;;;21.23;16.00;;;;;;;10.70;78.50;100839.97;5058219;28;20139;-48
2022/04/22 06:02:05;;;;;;;22.17;16.50;;;;;;;10.83;78.08;100840.31;5051174;28;20041;-47
2022/04/22 06:04:30;;;;;;;25.02;16.02;;;;;;;10.94;77.53;100837.19;5057463;28;20111;-50
2022/04/22 06:06:56;;;;;;;23.08;17.13;;;;;;;11.04;77.27;100846.00;5059306;28;20165;-46
2022/04/22 06:12:05;;;;;;;19.35;15.80;;;;;;;11.15;76.79;100830.84;5053898;28;20422;-45
2022/04/22 06:14:31;;;;;;;24.40;16.23;;;;;;;11.22;76.43;100832.72;5062042;28;20037;-48
2022/04/22 06:16:56;;;;;;;21.13;16.23;;;;;;;11.26;76.09;100838.00;5058470;28;20068;-46
2022/04/22 06:19:21;;;;;;;20.08;16.52;;;;;;;11.28;76.22;100841.50;5058980;28;20033;-46
2022/04/22 06:21:47;;;;;;;20.23;15.98;;;;;;;11.36;76.29;100833.09;5063378;28;20374;-48
2022/04/22 06:24:13;;;;;;;21.35;16.30;;;;;;;11.44;75.40;100835.00;5062082;28;20044;-47
2022/04/22 06:26:38;;;;;;;21.42;16.55;;;;;;;11.49;75.36;100832.53;5042612;28;20036;-46
2022/04/22 06:29:04;;;;;;;23.40;16.13;;;;;;;11.53;75.14;100824.94;5063724;28;20145;-45
2022/04/22 06:31:29;;;;;;;21.40;16.48;;;;;;;11.63;74.87;100835.44;5064282;28;20060;-46
2022/04/22 06:33:56;;;;;;;18.52;15.50;;;;;;;11.67;74.31;100829.53;5063764;28;20098;-50
2022/04/22 06:36:25;;;;;;;20.23;15.82;;;;;;;11.78;74.15;100830.66;5045395;28;20135;-46
2022/04/22 06:38:57;;;;;;;20.15;15.48;;;;;;;11.94;73.61;100829.28;5068877;28;20033;-46
2022/04/22 06:46:51;;;;;;;19.27;15.57;;;;;;;12.12;72.12;100833.97;5061626;28;20500;-45
2022/04/22 06:49:16;;;;;;;18.65;14.50;;;;;;;12.15;72.32;100829.78;5064660;28;20037;-52
2022/04/22 06:51:42;;;;;;;19.40;15.40;;;;;;;12.10;71.65;100828.78;5060061;28;20087;-45
2022/04/22 06:54:07;;;;;;;20.52;15.52;;;;;;;12.01;71.85;100831.16;5047981;28;20048;-47
2022/04/22 06:56:34;;;;;;;20.95;15.75;;;;;;;12.03;72.31;100832.94;5058040;28;20032;-46
2022/04/22 06:59:00;;;;;;;19.85;15.07;;;;;;;11.98;72.61;100836.25;5055079;28;20045;-47
2022/04/22 07:01:26;;;;;;;19.60;15.45;;;;;;;11.88;72.67;100830.03;5060493;28;20495;-47
2022/04/22 07:03:51;;;;;;;20.98;16.38;;;;;;;11.92;72.77;100833.56;5059742;28;20100;-49
2022/04/22 07:06:17;;;;;;;19.83;15.43;;;;;;;11.94;72.78;100837.03;5061143;28;20040;-48
2022/04/22 07:08:45;;;;;;;20.10;15.93;;;;;;;11.90;72.97;100832.66;5058887;28;20037;-46
2022/04/22 07:11:17;;;;;;;19.73;16.07;;;;;;;11.93;72.63;100840.44;5060577;28;20093;-47
2022/04/22 07:13:43;;;;;;;19.95;16.40;;;;;;;11.94;72.32;100840.47;5058053;28;20644;-46
2022/04/22 07:16:11;;;;;;;20.55;15.48;;;;;;;12.04;72.54;100836.41;5060010;28;20043;-48
2022/04/22 07:18:36;;;;;;;18.63;15.50;;;;;;;12.03;72.22;100835.53;5056516;28;20074;-45
2022/04/22 07:21:02;;;;;;;20.45;15.55;;;;;;;12.07;72.33;100829.63;5060251;28;20620;-47
2022/04/22 07:23:27;;;;;;;21.98;15.32;;;;;;;12.07;71.97;100821.88;5062633;28;20024;-46
2022/04/22 07:25:54;;;;;;;21.10;16.15;;;;;;;12.05;72.07;100820.09;5057497;28;20039;-48
2022/04/22 07:28:20;;;;;;;18.40;15.55;;;;;;;12.12;72.13;100814.22;5058013;28;20035;-51
2022/04/22 07:30:50;;;;;;;17.98;14.45;;;;;;;12.15;72.42;100816.00;5065237;28;20519;-47
2022/04/22 07:33:15;;;;;;;;;;;;;;;12.26;71.22;100806.78;5058020;28;20087;-48
2022/04/22 07:35:41;;;;;;;18.60;14.80;;;;;;;12.39;71.39;100810.50;5063896;28;19916;-48
2022/04/22 07:38:10;;;;;;;19.88;14.43;;;;;;;12.52;71.26;100810.75;5063100;28;20120;-45
2022/04/22 07:40:37;;;;;;;17.02;14.88;;;;;;;12.58;69.93;100803.13;5068657;28;20042;-48
2022/04/22 07:48:34;;;;;;;18.23;14.40;;;;;;;12.70;69.21;100810.22;5065615;28;20973;-45
2022/04/22 07:50:59;;;;;;;18.42;14.43;;;;;;;12.66;69.30;100815.28;5066617;28;20036;-47
2022/04/22 07:53:24;;;;;;;18.60;14.35;;;;;;;12.69;69.11;100803.34;5059517;28;20086;-48
2022/04/22 07:55:50;;;;;;;18.08;14.18;;;;;;;12.70;69.17;100801.63;5063826;28;20032;-47
2022/04/22 07:58:17;;;;;;;16.95;14.32;;;;;;;12.66;68.90;100808.41;5058095;28;20053;-45
2022/04/22 08:00:46;;;;;;;19.63;14.93;;;;;;;12.67;69.20;100805.00;5064400;28;20465;-47
2022/04/22 08:03:12;;;;;;;;;;;;;;;12.75;68.67;100810.31;5063281;28;20066;-46
2022/04/22 08:05:38;;;;;;;18.15;14.43;;;;;;;12.67;69.18;100807.56;5062621;28;19919;-49
2022/04/22 08:08:05;;;;;;;17.17;13.95;;;;;;;12.61;69.06;100805.75;5063466;28;20032;-51
2022/04/22 08:10:30;;;;;;;21.05;14.57;;;;;;;12.63;69.28;100794.63;5066636;28;20025;-50
2022/04/22 08:12:55;;;;;;;21.77;14.57;;;;;;;12.71;69.00;100798.19;5067258;28;20499;-49
2022/04/22 08:15:21;;;;;;;19.52;14.50;;;;;;;12.80;69.21;100803.50;5064629;28;20028;-50
2022/04/22 08:17:47;;;;;;;19.67;14.13;;;;;;;12.86;68.76;100791.59;5067229;28;20029;-52
2022/04/22 08:20:13;;;;;;;16.13;12.85;;;;;;;12.89;68.29;100795.94;5064098;28;20108;-46
2022/04/22 08:22:39;;;;;;;24.15;15.50;;;;;;;12.85;68.15;100795.00;5068395;28;20546;-45
2022/04/22 08:25:05;;;;;;;15.45;13.38;;;;;;;12.86;68.17;100811.34;5065051;28;20041;-48
2022/04/22 08:27:31;;;;;;;16.17;13.82;;;;;;;12.72;68.52;100800.78;5055362;28;20043;-49
2022/04/22 08:29:57;;;;;;;15.70;13.48;;;;;;;12.68;69.53;100790.38;5062384;22;20033;-48
2022/04/22 08:32:23;;;;;;;18.33;14.13;;;;;;;12.62;68.94;100778.28;5039387;28;20440;-52
2022/04/22 08:34:48;;;;;;;16.10;14.40;;;;;;;12.65;69.45;100778.31;5044814;28;20068;-53
2022/04/22 08:37:14;;;;;;;16.05;13.48;;;;;;;12.67;69.50;100792.09;5043458;28;20041;-53
2022/04/22 08:39:39;;;;;;;16.55;14.15;;;;;;;12.69;69.16;100787.00;5045224;28;20021;-52
2022/04/22 08:42:05;;;;;;;16.75;14.13;;;;;;;12.78;69.02;100785.44;5045745;28;20033;-53
2022/04/22 08:44:31;;;;;;;15.90;13.68;;;;;;;12.85;68.42;100789.84;5046364;28;20025;-52
2022/04/22 08:50:02;;;;;;;16.98;13.48;;;;;;;13.07;68.01;100779.91;5046706;28;20439;-53
2022/04/22 08:52:33;;;;;;;18.40;13.57;;;;;;;13.19;67.72;100776.66;5044991;28;20032;-49
2022/04/22 08:55:00;;;;;;;20.20;14.50;;;;;;;13.30;67.20;100769.97;5046889;28;20415;-52
2022/04/22 08:57:28;;;;;;;20.83;13.43;;;;;;;13.48;67.19;100769.38;5046190;28;20393;-53
2022/04/22 08:59:57;;;;;;;17.33;13.55;;;;;;;13.61;65.77;100763.56;5046299;28;20032;-53
2022/04/22 09:02:23;;;;;;;16.67;13.50;;;;;;;13.79;65.65;100771.56;5044940;28;20115;-53
2022/04/22 09:04:49;;;;;;;18.00;13.73;;;;;;;13.88;65.07;100770.78;5045942;28;20400;-53
2022/04/22 09:07:18;;;;;;;17.08;13.77;;;;;;;13.96;65.13;100774.38;5046941;28;20033;-53
2022/04/22 09:09:49;;;;;;;14.93;13.40;;;;;;;14.00;64.16;100760.59;5046025;28;20055;-51
2022/04/22 09:12:17;;;;;;;19.10;13.65;;;;;;;14.07;63.72;100754.66;5045232;28;20116;-53
2022/04/22 09:14:49;;;;;;;14.98;13.38;;;;;;;14.17;63.50;100747.88;5042414;28;20037;-53
2022/04/22 09:17:16;;;;;;;16.17;13.15;;;;;;;14.28;62.94;100742.84;5046019;28;20064;-53
2022/04/22 09:19:45;;;;;;;18.38;13.77;;;;;;;14.36;62.96;100755.00;5045503;28;20417;-52
2022/04/22 09:22:11;;;;;;;;;;;;;;;14.42;61.81;100752.47;5043205;28;20040;-53
2022/04/22 09:24:47;;;;;;;16.08;12.48;;;;;;;14.42;61.19;100755.06;5042690;28;19917;-51
2022/04/22 09:27:13;;;;;;;15.23;12.25;;;;;;;14.37;61.06;100745.50;5044767;28;20059;-53
2022/04/22 09:29:56;;;;;;;16.73;12.90;;;;;;;14.34;61.76;100741.19;5047213;28;20461;-53
2022/04/22 09:32:22;;;;;;;17.33;12.77;;;;;;;14.32;61.50;100737.72;5059529;28;20107;-52
2022/04/22 09:34:48;;;;;;;16.15;11.63;;;;;;;14.36;61.92;100730.84;5058759;28;20480;-53
2022/04/22 09:42:38;;;;;;;14.40;11.52;;;;;;;14.57;60.77;100719.91;5059354;28;20060;-53
2022/04/22 09:43:15;;;;;;;12.27;10.98;;;;;;;14.54;58.71;100719.84;5057659;28;20036;-53
2022/04/22 09:45:40;;;;;;;14.90;10.60;;;;;;;14.48;58.88;100720.66;5063316;28;20109;-51
2022/04/22 09:48:14;;;;;;;14.55;10.63;;;;;;;14.49;59.10;100720.66;5059966;28;20036;-53
2022/04/22 09:50:41;;;;;;;12.55;10.85;;;;;;;14.49;58.99;100717.22;5061748;28;20078;-52
2022/04/22 09:53:08;;;;;;;15.93;11.90;;;;;;;14.54;59.29;100717.25;5061101;28;20035;-53
2022/04/22 09:55:47;;;;;;;13.40;11.07;;;;;;;14.60;59.24;100717.31;5056420;28;20032;-53
2022/04/22 09:58:20;;;;;;;11.98;10.68;;;;;;;14.49;57.68;100706.88;5059629;28;20060;-53
2022/04/22 10:00:47;;;;;;;14.18;10.43;;;;;;;14.59;58.62;100706.13;5058790;28;20060;-50
2022/04/22 10:03:13;;;;;;;13.27;10.20;;;;;;;14.81;57.53;100691.66;5060994;28;20040;-47
2022/04/22 10:05:39;;;;;;;14.13;9.95;;;;;;;14.87;56.11;100699.47;5060727;28;20055;-53
2022/04/22 10:08:06;;;;;;;11.85;10.00;;;;;;;14.84;56.00;100704.59;5062940;28;20028;-53
2022/04/22 10:10:39;;;;;;;11.68;10.40;;;;;;;14.77;56.24;100699.38;5061167;28;20070;-53
2022/04/22 10:13:05;;;;;;;10.60;9.18;;;;;;;14.82;55.49;100698.56;5064107;28;20426;-51
2022/04/22 10:15:35;;;;;;;14.35;9.10;;;;;;;14.76;54.58;100698.50;5058702;28;20029;-53
2022/04/22 10:18:01;;;;;;;15.13;9.75;;;;;;;14.65;54.73;100701.00;5060546;28;20025;-53
2022/04/22 10:20:29;;;;;;;13.25;9.50;;;;;;;14.62;54.71;100695.81;5062541;28;20028;-53
2022/04/22 10:22:56;;;;;;;11.35;9.60;;;;;;;14.76;54.64;100688.16;5064812;28;20036;-53
2022/04/22 10:25:22;;;;;;;12.93;9.70;;;;;;;14.85;54.37;100693.38;5063739;28;20483;-53
2022/04/22 10:27:51;;;;;;;13.63;9.45;;;;;;;14.88;53.66;100683.06;5060641;28;20061;-53
2022/04/22 10:30:17;;;;;;;12.82;9.32;;;;;;;15.10;54.29;100690.97;5061544;28;20048;-51
2022/04/22 10:32:47;;;;;;;11.25;9.65;;;;;;;15.06;53.10;100686.66;5068785;28;20043;-53
2022/04/22 10:35:13;;;;;;;;;;;;;;;15.11;54.26;100682.38;5059267;28;20058;-53
2022/04/22 10:37:39;;;;;;;15.63;9.35;;;;;;;14.98;53.39;100684.84;5058915;28;19972;-53
2022/04/22 10:40:05;;;;;;;14.07;10.10;;;;;;;14.93;53.86;100686.56;5059002;28;20060;-49
2022/04/22 10:42:38;;;;;;;11.32;10.13;;;;;;;14.88;54.70;100692.56;5062849;28;20534;-53
2022/04/22 10:47:50;;;;;;;13.98;10.93;;;;;;;14.80;55.69;100686.44;5056191;28;20050;-53
2022/04/22 10:50:31;;;;;;;12.85;10.98;;;;;;;14.74;55.52;100682.06;5056232;28;20031;-52
2022/04/22 10:53:02;;;;;;;14.63;10.25;;;;;;;14.66;55.11;100681.16;5060499;28;20380;-53
2022/04/22 10:55:36;;;;;;;13.38;9.95;;;;;;;14.64;55.21;100673.38;5063578;28;20066;-53
2022/04/22 10:58:14;;;;;;;14.30;10.65;;;;;;;14.60;55.35;100676.78;5062453;28;20024;-53
2022/04/22 11:00:41;;;;;;;12.30;10.43;;;;;;;14.60;55.47;100681.09;5061910;28;20035;-52
2022/04/22 11:03:14;;;;;;;12.52;10.55;;;;;;;14.63;55.74;100673.38;5065891;28;20456;-52
2022/04/22 11:05:46;;;;;;;14.68;10.60;;;;;;;14.61;56.43;100672.47;5062785;28;20048;-55
2022/04/22 11:08:32;;;;;;;15.57;10.32;;;;;;;14.58;57.07;100675.06;5063981;28;20052;-52
2022/04/22 11:11:03;;;;;;;13.55;10.98;;;;;;;14.60;57.51;100675.91;5062037;28;20028;-53
2022/04/22 11:13:40;;;;;;;13.23;11.40;;;;;;;14.52;57.61;100672.41;5062392;28;20490;-53
2022/04/22 11:16:24;;;;;;;16.27;11.68;;;;;;;14.51;57.71;100676.72;5058713;28;20487;-53
2022/04/22 11:19:18;;;;;;;16.08;11.63;;;;;;;14.44;57.68;100667.16;5059128;28;20024;-53
2022/04/22 11:21:45;;;;;;;13.20;11.00;;;;;;;14.31;57.89;100667.84;5057350;28;20074;-51
2022/04/22 11:24:15;;;;;;;15.32;11.15;;;;;;;14.31;58.24;100660.97;5057966;28;20056;-52
2022/04/22 11:26:45;;;;;;;15.27;12.30;;;;;;;14.32;58.56;100660.13;5059858;28;20051;-53
2022/04/22 11:29:12;;;;;;;16.15;11.82;;;;;;;14.29;58.44;100659.22;5058012;28;20033;-53
2022/04/22 11:31:38;;;;;;;15.38;11.63;;;;;;;14.30;58.84;100654.06;5059773;28;20076;-52
2022/04/22 11:34:10;;;;;;;14.80;11.93;;;;;;;14.33;58.96;100661.88;5058662;28;20086;-53
2022/04/22 11:36:46;;;;;;;17.50;11.73;;;;;;;14.39;58.65;100663.66;5055591;28;20103;-53
2022/04/22 11:39:29;;;;;;;16.42;11.77;;;;;;;14.46;57.85;100665.44;5059753;28;20107;-53
2022/04/22 11:41:58;;;;;;;17.80;11.63;;;;;;;14.40;58.12;100657.63;5060961;28;20037;-53
2022/04/22 11:44:27;;;;;;;16.48;11.23;;;;;;;14.35;57.95;100665.31;5079230;28;20362;-53
2022/04/22 11:46:53;;;;;;;14.70;11.38;;;;;;;14.32;58.51;100675.66;5064033;28;20401;-53
2022/04/22 11:49:21;;;;;;;17.20;11.95;;;;;;;14.33;58.77;100669.63;5062376;28;20025;-53
2022/04/22 11:51:55;;;;;;;15.88;11.27;;;;;;;14.36;57.97;100656.69;5056925;28;20477;-53
2022/04/22 11:54:25;;;;;;;13.73;10.25;;;;;;;14.36;58.41;100655.84;5063267;28;20036;-53
2022/04/22 11:56:53;;;;;;;15.02;10.65;;;;;;;14.39;58.53;100655.88;5060966;28;20051;-49
2022/04/22 11:59:22;;;;;;;18.80;10.18;;;;;;;14.43;59.13;100653.31;5061828;28;20499;-52
2022/04/22 12:10:03;;;;;;;10.48;9.38;;;;;;;14.54;56.77;100637.91;5060756;28;20039;-53